Terminal Aerodrome Forecast
Issued by NWS Wilmington, OH

Current Version | Previous Version | Graphics & Text | Print | Product List | Glossary On
Versions: 1 2 3 4 5 6 7 8 9 10 11 12 13 14 15 16 17 18 19 20 21 22 23 24 25 26 27
000
FTUS41 KILN 042210 AAC
TAFILN
TAF AMD
KILN 042210Z 0422/0518 24006KT P6SM VCTS BKN040CB
      TEMPO 0422/0424 03022G30KT 3SM -TSRA OVC025CB
     FM050100 VRB03KT P6SM SCT060
     FM050800 VRB03KT 4SM BR SKC
     FM051300 17005KT P6SM SCT040=

USA.gov is the U.S. government's official web portal to all federal, state and local government web resources and services.